Time;durP1;ratioP1;P1;durP2;ratioP2;P2;SDS_P1;SDS_P2;PMS_P1;PMS_P2;Temp;Humidity;BMP_temperature;BMP_pressure;BME280_temperature;BME280_humidity;BME280_pressure;Samples;Min_cycle;Max_cycle;Signal;HPM_P1;HPM_P2
2021/08/30 00:03:50;;;;;;;2.30;1.27;;;;;;;17.29;71.50;97633.53;8414679;28;20568;-65
2021/08/30 00:07:53;;;;;;;2.77;1.43;;;;;;;17.37;71.25;97639.81;8419735;28;20505;-65
2021/08/30 00:11:56;;;;;;;1.93;1.50;;;;;;;17.37;71.21;97625.91;8421968;28;20211;-65
2021/08/30 00:15:58;;;;;;;1.70;1.43;;;;;;;17.33;70.73;97637.56;8421733;28;20214;-65
2021/08/30 00:20:04;;;;;;;3.77;1.40;;;;;;;17.42;70.68;97631.63;8421815;28;20203;-65
2021/08/30 00:24:07;;;;;;;3.87;1.30;;;;;;;17.48;70.88;97627.69;8421483;28;20203;-65
2021/08/30 00:28:10;;;;;;;1.33;1.23;;;;;;;17.48;70.47;97625.91;8421412;28;20199;-65
2021/08/30 00:32:13;;;;;;;1.67;1.30;;;;;;;17.50;70.08;97610.91;8421333;28;20250;-65
2021/08/30 00:36:17;;;;;;;2.20;1.20;;;;;;;17.52;70.45;97606.38;8421154;28;20199;-65
2021/08/30 00:40:20;;;;;;;2.70;1.20;;;;;;;17.50;70.20;97604.84;8420942;28;20210;-65
2021/08/30 00:44:23;;;;;;;2.60;1.20;;;;;;;17.55;70.55;97592.22;8420778;28;20211;-65
2021/08/30 00:48:26;;;;;;;2.03;1.50;;;;;;;17.52;70.46;97590.69;8420830;28;20226;-65
2021/08/30 00:52:30;;;;;;;3.07;1.70;;;;;;;17.52;70.30;97584.63;8420590;28;20242;-65
2021/08/30 00:56:33;;;;;;;4.80;1.60;;;;;;;17.49;70.78;97583.06;8420472;28;20214;-65
2021/08/30 01:00:36;;;;;;;2.37;1.77;;;;;;;17.52;70.04;97585.44;8420230;28;20199;-65
2021/08/30 01:04:39;;;;;;;4.70;1.80;;;;;;;17.55;70.68;97586.97;8420207;28;20301;-65
2021/08/30 01:08:47;;;;;;;1.87;1.60;;;;;;;17.52;70.13;97580.22;8420321;28;20510;-65
2021/08/30 01:12:53;;;;;;;2.67;1.90;;;;;;;17.54;70.43;97570.44;8420076;28;20405;-65
2021/08/30 01:16:56;;;;;;;1.77;1.57;;;;;;;17.55;70.42;97572.13;8419197;28;20199;-65
2021/08/30 01:21:21;;;;;;;2.70;1.57;;;;;;;17.57;70.30;97571.97;8419255;28;20211;-65
2021/08/30 01:25:26;;;;;;;3.57;1.90;;;;;;;17.57;70.28;97564.97;8414641;28;20203;-67
2021/08/30 01:29:32;;;;;;;2.53;1.60;;;;;;;17.52;70.38;97559.25;8419594;28;20199;-66
2021/08/30 01:33:36;;;;;;;2.47;1.60;;;;;;;17.55;70.24;97553.78;8419561;28;20227;-66
2021/08/30 01:37:41;;;;;;;3.97;1.70;;;;;;;17.60;70.05;97550.81;8419212;28;20211;-66
2021/08/30 01:41:44;;;;;;;3.70;1.70;;;;;;;17.59;70.42;97551.75;8418972;28;20521;-65
2021/08/30 01:45:47;;;;;;;1.50;1.40;;;;;;;17.58;70.77;97539.63;8419227;28;20203;-65
2021/08/30 01:50:00;;;;;;;2.63;1.70;;;;;;;17.55;70.24;97538.09;8418740;28;20392;-66
2021/08/30 01:54:04;;;;;;;1.70;1.50;;;;;;;17.53;70.64;97547.81;8418837;28;20325;-65
2021/08/30 02:02:27;;;;;;;1.20;1.10;;;;;;;17.47;70.54;97539.63;8418359;28;20564;-65
2021/08/30 02:06:32;;;;;;;1.07;0.93;;;;;;;17.48;69.98;97538.69;8418299;28;20218;-65
2021/08/30 02:10:35;;;;;;;1.73;1.13;;;;;;;17.45;70.24;97531.91;8418230;28;20540;-65
2021/08/30 02:14:38;;;;;;;2.00;1.17;;;;;;;17.47;70.28;97526.56;8418044;28;20233;-65
2021/08/30 02:18:43;;;;;;;1.20;1.10;;;;;;;17.33;70.78;97522.41;8417836;28;20214;-65
2021/08/30 02:22:47;;;;;;;1.00;1.00;;;;;;;17.46;70.34;97525.72;8417779;28;20203;-65
2021/08/30 02:26:53;;;;;;;1.60;1.30;;;;;;;17.40;70.36;97520.94;8417499;28;20229;-65
2021/08/30 02:30:56;;;;;;;1.60;1.10;;;;;;;17.40;70.52;97518.34;8417224;28;20490;-65
2021/08/30 02:35:02;;;;;;;1.90;1.30;;;;;;;17.38;70.48;97517.63;8417334;28;20545;-65
2021/08/30 02:39:06;;;;;;;2.53;1.27;;;;;;;17.34;70.16;97509.22;8417317;28;20505;-65
2021/08/30 02:43:11;;;;;;;1.30;1.10;;;;;;;17.39;70.26;97507.03;8416867;28;20210;-63
2021/08/30 02:47:14;;;;;;;1.73;0.83;;;;;;;17.17;70.62;97515.78;8417032;28;20408;-63
2021/08/30 02:51:17;;;;;;;0.93;0.93;;;;;;;17.30;70.02;97517.41;8416802;28;20455;-63
2021/08/30 02:55:21;;;;;;;2.43;0.83;;;;;;;17.29;70.00;97521.00;8416668;28;20253;-63
2021/08/30 02:59:24;;;;;;;0.83;0.80;;;;;;;17.21;70.38;97521.59;8416716;28;20210;-63
2021/08/30 03:03:27;;;;;;;1.23;0.90;;;;;;;17.30;69.94;97526.09;8416494;28;20250;-63
2021/08/30 03:07:31;;;;;;;5.93;0.80;;;;;;;17.22;70.33;97522.44;8416607;28;20199;-65
2021/08/30 03:11:37;;;;;;;2.73;0.80;;;;;;;17.25;69.68;97527.41;8416715;28;20205;-65
2021/08/30 03:15:40;;;;;;;0.70;0.70;;;;;;;17.23;70.12;97539.78;8416575;28;20226;-65
2021/08/30 03:19:46;;;;;;;3.43;0.63;;;;;;;17.19;69.73;97540.03;8416289;28;20235;-65
2021/08/30 03:23:49;;;;;;;2.67;0.87;;;;;;;17.15;70.24;97543.84;8416509;28;20203;-65
2021/08/30 03:27:54;;;;;;;1.83;0.90;;;;;;;17.06;70.19;97548.94;8416106;28;20203;-65
2021/08/30 03:31:57;;;;;;;1.37;0.90;;;;;;;17.06;70.98;97548.94;8416112;28;20199;-65
2021/08/30 03:36:00;;;;;;;4.63;1.00;;;;;;;17.04;70.98;97548.22;8416265;28;20233;-65
2021/08/30 03:40:04;;;;;;;1.53;0.93;;;;;;;17.15;70.46;97558.69;8415913;28;20203;-65
2021/08/30 03:44:09;;;;;;;1.40;0.97;;;;;;;17.20;70.51;97554.75;8422352;28;20213;-65
2021/08/30 03:48:12;;;;;;;1.20;1.10;;;;;;;17.14;70.29;97557.03;8422804;28;20219;-65
2021/08/30 03:52:17;;;;;;;3.40;1.07;;;;;;;17.07;70.24;97558.47;8422666;28;20206;-64
2021/08/30 03:56:20;;;;;;;2.73;1.00;;;;;;;17.17;70.14;97556.78;8422222;28;20521;-65
2021/08/30 04:00:28;;;;;;;1.37;1.03;;;;;;;17.16;69.90;97566.44;8422429;28;20206;-65
2021/08/30 04:04:32;;;;;;;3.23;0.90;;;;;;;17.18;69.89;97561.06;8422087;28;20565;-65
2021/08/30 04:08:35;;;;;;;1.93;1.00;;;;;;;17.14;69.80;97570.13;8422078;28;20411;-65
2021/08/30 04:12:37;;;;;;;1.03;1.00;;;;;;;17.18;69.50;97567.13;8422130;28;20207;-64
2021/08/30 04:16:43;;;;;;;0.80;0.80;;;;;;;17.24;69.66;97568.44;8421715;28;20227;-65
2021/08/30 04:20:46;;;;;;;1.20;1.10;;;;;;;17.19;69.71;97578.44;8421713;28;20210;-65
2021/08/30 04:24:49;;;;;;;2.47;0.90;;;;;;;17.24;69.55;97571.06;8421595;28;20498;-65
2021/08/30 04:28:52;;;;;;;1.13;1.03;;;;;;;17.26;69.30;97578.81;8421333;28;20206;-65
2021/08/30 04:32:56;;;;;;;1.90;1.10;;;;;;;17.22;69.25;97583.44;8421279;28;20199;-64
2021/08/30 04:36:59;;;;;;;1.00;0.90;;;;;;;17.19;69.05;97581.91;8421094;28;20341;-65
2021/08/30 04:41:02;;;;;;;1.77;1.20;;;;;;;17.14;69.41;97594.50;8420718;28;20210;-65
2021/08/30 04:45:05;;;;;;;1.87;1.30;;;;;;;17.15;69.48;97592.69;8421035;28;20203;-64
2021/08/30 04:49:10;;;;;;;2.37;1.20;;;;;;;17.20;69.77;97598.41;8420629;28;20553;-64
2021/08/30 04:53:12;;;;;;;1.70;1.10;;;;;;;17.19;69.40;97601.97;8420393;28;20199;-64
2021/08/30 04:57:15;;;;;;;1.37;1.10;;;;;;;17.20;69.62;97603.66;8420516;28;20518;-65
2021/08/30 05:01:18;;;;;;;2.10;1.30;;;;;;;17.18;69.63;97610.78;8420568;28;20205;-64
2021/08/30 05:05:23;;;;;;;6.80;1.40;;;;;;;17.20;69.67;97614.13;8420177;28;20246;-64
2021/08/30 05:09:25;;;;;;;4.20;1.37;;;;;;;17.24;69.73;97612.94;8420337;28;20206;-64
2021/08/30 05:13:28;;;;;;;2.27;1.60;;;;;;;17.13;69.67;97610.31;8420045;28;20199;-64
2021/08/30 05:17:31;;;;;;;3.60;1.50;;;;;;;17.18;69.98;97614.22;8419877;28;20226;-65
2021/08/30 05:21:35;;;;;;;1.50;1.40;;;;;;;17.13;70.13;97613.75;8419832;28;20203;-65
2021/08/30 05:25:38;;;;;;;1.63;1.53;;;;;;;17.17;70.05;97611.72;8419799;28;20207;-64
2021/08/30 05:29:41;;;;;;;3.07;1.70;;;;;;;17.17;69.85;97622.19;8419679;28;20486;-64
2021/08/30 05:33:44;;;;;;;1.83;1.60;;;;;;;17.14;70.16;97617.22;8419185;28;20199;-64
2021/08/30 05:37:48;;;;;;;2.63;1.40;;;;;;;17.15;70.08;97618.88;8419266;28;20206;-65
2021/08/30 05:41:50;;;;;;;8.80;1.83;;;;;;;17.23;70.03;97621.75;8418930;28;20206;-65
2021/08/30 05:45:53;;;;;;;1.77;1.40;;;;;;;17.28;69.68;97616.97;8419012;28;20498;-65
2021/08/30 05:49:56;;;;;;;3.10;1.57;;;;;;;17.22;69.77;97622.69;8418728;28;20286;-64
2021/08/30 05:54:00;;;;;;;2.67;1.57;;;;;;;17.20;69.75;97625.41;8418655;28;20199;-65
2021/08/30 05:58:03;;;;;;;2.03;1.40;;;;;;;16.96;70.50;97630.75;8418452;28;20206;-73
2021/08/30 06:02:06;;;;;;;1.43;1.07;;;;;;;17.10;70.25;97626.25;8418178;28;20289;-65
2021/08/30 06:06:09;;;;;;;1.90;1.20;;;;;;;17.25;69.83;97642.53;8417621;28;20387;-65
2021/08/30 06:10:14;;;;;;;1.40;1.20;;;;;;;17.10;69.59;97634.09;8418174;28;20210;-65
2021/08/30 06:14:17;;;;;;;3.33;1.07;;;;;;;17.27;69.33;97631.03;8418065;28;20238;-65
2021/08/30 06:18:20;;;;;;;3.23;1.20;;;;;;;17.19;69.87;97629.00;8416990;28;20206;-65
2021/08/30 06:22:22;;;;;;;1.43;1.20;;;;;;;17.37;69.50;97636.38;8415020;28;20381;-65
2021/08/30 06:26:27;;;;;;;1.93;1.10;;;;;;;17.44;69.37;97641.94;8415127;28;20309;-65
2021/08/30 06:30:34;;;;;;;2.47;0.87;;;;;;;17.50;69.18;97637.09;8414889;28;20268;-65
2021/08/30 06:34:37;;;;;;;1.00;0.80;;;;;;;17.43;68.96;97641.13;8415048;28;20356;-65
2021/08/30 06:38:40;;;;;;;1.10;1.00;;;;;;;17.54;68.84;97651.59;8414943;28;20199;-65
2021/08/30 06:42:44;;;;;;;2.73;0.90;;;;;;;17.64;68.50;97651.72;8414752;28;20385;-66
2021/08/30 06:46:47;;;;;;;4.40;1.20;;;;;;;17.60;69.16;97652.91;8414646;28;20202;-66
2021/08/30 06:50:50;;;;;;;1.43;0.80;;;;;;;17.70;68.47;97656.47;8414497;28;20413;-65
2021/08/30 06:54:52;;;;;;;0.80;0.80;;;;;;;17.60;68.73;97658.16;8414474;28;20238;-66
2021/08/30 06:58:56;;;;;;;16.50;1.33;;;;;;;17.74;68.35;97657.06;8414414;28;20258;-65
2021/08/30 07:02:59;;;;;;;1.20;0.90;;;;;;;17.92;68.52;97658.25;8414020;28;20242;-59
2021/08/30 07:07:05;;;;;;;1.47;1.10;;;;;;;17.81;68.27;97660.03;8418811;28;20209;-67
2021/08/30 07:11:08;;;;;;;1.77;1.17;;;;;;;17.81;68.41;97665.28;8419538;28;20207;-59
2021/08/30 07:15:13;;;;;;;1.70;1.00;;;;;;;17.85;68.41;97671.97;8413211;28;20218;-59
2021/08/30 07:19:15;;;;;;;5.07;1.10;;;;;;;17.85;68.57;97680.66;8410461;28;20222;-60
2021/08/30 07:23:18;;;;;;;0.90;0.90;;;;;;;18.02;68.16;97679.31;8413036;28;20190;-60
2021/08/30 07:27:21;;;;;;;2.33;1.03;;;;;;;18.14;68.21;97685.38;8410997;28;20195;-59
2021/08/30 07:31:25;;;;;;;1.10;0.80;;;;;;;18.23;67.63;97682.03;8413713;28;20191;-59
2021/08/30 07:35:28;;;;;;;2.00;1.00;;;;;;;18.36;67.87;97685.31;8413106;28;20215;-59
2021/08/30 07:39:31;;;;;;;1.43;1.00;;;;;;;18.22;67.13;97687.38;8410602;28;20395;-60
2021/08/30 07:43:34;;;;;;;1.00;0.97;;;;;;;18.27;68.29;97693.09;8412548;28;20401;-59
2021/08/30 07:47:40;;;;;;;1.10;1.10;;;;;;;18.09;68.52;97695.41;8413501;28;20485;-67
2021/08/30 07:51:43;;;;;;;2.30;1.10;;;;;;;17.98;68.51;97707.56;8409020;28;20211;-67
2021/08/30 07:55:46;;;;;;;2.70;1.20;;;;;;;17.92;68.78;97712.47;8412687;28;20230;-66
2021/08/30 07:59:48;;;;;;;1.03;0.87;;;;;;;18.03;68.74;97717.69;8413019;28;20204;-67
2021/08/30 08:03:55;;;;;;;1.73;0.90;;;;;;;18.06;67.72;97708.75;8412942;28;20230;-67
2021/08/30 08:08:01;;;;;;;1.00;0.97;;;;;;;18.23;67.87;97713.47;8412433;28;20196;-67
2021/08/30 08:12:05;;;;;;;0.73;0.73;;;;;;;18.11;69.05;97719.69;8412215;28;20191;-67
2021/08/30 08:16:07;;;;;;;1.03;0.70;;;;;;;18.34;67.50;97723.94;8411941;28;20223;-67
2021/08/30 08:20:13;;;;;;;1.00;0.80;;;;;;;18.44;66.74;97731.06;8412128;28;20199;-67
2021/08/30 08:24:16;;;;;;;0.80;0.70;;;;;;;18.48;66.13;97733.31;8412824;28;20209;-66
2021/08/30 08:28:19;;;;;;;0.97;0.80;;;;;;;19.50;64.43;97740.75;8416089;28;20207;-66
2021/08/30 08:32:22;;;;;;;1.03;0.70;;;;;;;20.35;63.73;97742.22;8418890;28;20207;-66
2021/08/30 08:36:26;;;;;;;2.83;0.60;;;;;;;20.98;61.29;97735.81;8418822;28;20235;-66
2021/08/30 08:40:29;;;;;;;2.77;0.80;;;;;;;20.38;60.89;97741.13;8418470;28;20206;-66
2021/08/30 08:44:32;;;;;;;0.70;0.70;;;;;;;20.34;61.72;97747.63;8418088;28;20533;-66
2021/08/30 08:48:35;;;;;;;0.50;0.50;;;;;;;20.80;57.69;97752.28;8418287;28;20244;-66
2021/08/30 08:52:42;;;;;;;0.70;0.50;;;;;;;21.97;56.69;97757.41;8418369;28;20213;-67
2021/08/30 08:56:44;;;;;;;0.70;0.60;;;;;;;22.31;55.57;97753.38;8418320;28;20383;-67
2021/08/30 09:01:00;;;;;;;1.37;0.63;;;;;;;21.79;56.74;97756.50;8417849;28;20201;-67
2021/08/30 09:05:06;;;;;;;0.53;0.50;;;;;;;21.13;58.15;97755.47;8417962;28;20467;-66
2021/08/30 09:09:14;;;;;;;0.50;0.50;;;;;;;20.68;59.53;97767.38;8417562;28;20203;-67
2021/08/30 09:13:16;;;;;;;1.03;0.70;;;;;;;20.41;60.30;97778.50;8417242;28;20199;-66
2021/08/30 09:17:19;;;;;;;0.53;0.50;;;;;;;20.51;60.22;97773.28;8417156;28;20232;-67
2021/08/30 09:21:22;;;;;;;0.73;0.70;;;;;;;20.63;60.01;97774.00;8417062;28;20206;-66
2021/08/30 09:25:27;;;;;;;1.37;0.80;;;;;;;20.41;60.07;97773.25;8416854;28;20212;-67
2021/08/30 09:29:31;;;;;;;0.87;0.70;;;;;;;20.09;60.46;97782.13;8417223;28;20199;-73
2021/08/30 09:33:35;;;;;;;1.00;0.73;;;;;;;19.83;62.15;97781.75;8416680;28;20230;-67
2021/08/30 09:37:40;;;;;;;1.00;0.90;;;;;;;19.95;61.88;97784.28;8425173;28;20555;-67
2021/08/30 09:41:45;;;;;;;1.00;0.93;;;;;;;20.59;59.84;97777.84;8427060;28;20200;-67
2021/08/30 09:45:48;;;;;;;3.07;0.70;;;;;;;21.17;57.85;97775.31;8430144;28;20202;-67
2021/08/30 09:49:52;;;;;;;0.70;0.70;;;;;;;22.30;53.37;97772.84;8426300;28;20217;-66
2021/08/30 09:53:55;;;;;;;0.90;0.80;;;;;;;21.77;54.43;97769.81;8415651;28;20197;-59
2021/08/30 09:58:00;;;;;;;0.70;0.70;;;;;;;21.64;53.65;97777.19;8415446;28;20271;-59
2021/08/30 10:02:03;;;;;;;1.07;0.60;;;;;;;22.20;52.09;97778.09;8415273;28;20262;-60
2021/08/30 10:06:07;;;;;;;0.50;0.50;;;;;;;22.76;51.71;97771.03;8415448;28;20205;-60
2021/08/30 10:10:10;;;;;;;0.47;0.40;;;;;;;22.55;47.37;97776.56;8415542;28;20210;-59
2021/08/30 10:14:17;;;;;;;0.40;0.40;;;;;;;23.08;46.78;97777.63;8415079;28;20266;-60
2021/08/30 10:18:21;;;;;;;0.50;0.37;;;;;;;23.58;46.48;97771.72;8415056;28;20294;-59
2021/08/30 10:22:25;;;;;;;1.17;0.40;;;;;;;24.11;46.25;97764.63;8414800;28;20206;-60
2021/08/30 10:26:37;;;;;;;0.30;0.30;;;;;;;24.25;44.52;97779.88;8414874;28;20377;-60
2021/08/30 10:30:54;;;;;;;0.30;0.30;;;;;;;22.80;46.45;97781.13;8415058;28;20222;-60
2021/08/30 10:34:57;;;;;;;1.83;0.70;;;;;;;21.98;50.81;97782.78;8414638;28;20206;-59
2021/08/30 10:39:02;;;;;;;1.57;0.70;;;;;;;21.76;52.30;97781.34;8414306;28;20237;-59
2021/08/30 10:43:10;;;;;;;1.10;0.60;;;;;;;21.80;53.32;97779.22;8414188;28;20382;-59
2021/08/30 10:47:14;;;;;;;0.70;0.70;;;;;;;22.50;52.10;97784.09;8414279;28;20218;-61
2021/08/30 10:51:20;;;;;;;0.63;0.63;;;;;;;23.10;50.17;97773.84;8413818;28;20226;-60
2021/08/30 10:55:23;;;;;;;0.50;0.50;;;;;;;24.08;47.70;97775.50;8413766;28;20199;-60
2021/08/30 10:59:27;;;;;;;1.60;0.60;;;;;;;24.34;45.22;97783.41;8413529;28;20226;-60
2021/08/30 11:03:33;;;;;;;1.23;0.70;;;;;;;24.78;43.39;97784.03;8413376;28;20278;-60
2021/08/30 11:07:37;;;;;;;0.40;0.40;;;;;;;25.27;44.21;97787.78;8414430;28;20513;-59
2021/08/30 11:11:39;;;;;;;1.73;0.50;;;;;;;24.00;45.74;97792.16;8414263;28;20200;-59
2021/08/30 11:15:54;;;;;;;2.80;0.60;;;;;;;22.56;53.50;97804.59;8414110;28;20211;-60
2021/08/30 11:19:59;;;;;;;0.97;0.60;;;;;;;22.12;56.98;97797.28;8413335;28;20210;-59
2021/08/30 11:24:02;;;;;;;0.70;0.60;;;;;;;22.14;55.20;97798.00;8413355;28;20202;-60
2021/08/30 11:28:15;;;;;;;0.60;0.50;;;;;;;21.93;55.10;97805.28;8413603;28;20238;-60
2021/08/30 11:32:20;;;;;;;1.20;0.60;;;;;;;21.55;56.42;97802.59;8413467;28;20202;-59
2021/08/30 11:36:24;;;;;;;1.37;0.77;;;;;;;21.43;56.44;97798.41;8413056;28;20223;-59
2021/08/30 11:40:27;;;;;;;4.53;0.80;;;;;;;21.15;57.05;97797.47;8418867;28;20276;-62
2021/08/30 11:44:31;;;;;;;0.70;0.70;;;;;;;21.35;57.63;97799.13;8427061;28;20224;-59
2021/08/30 11:48:33;;;;;;;1.33;0.90;;;;;;;22.24;56.90;97797.94;8421665;28;20294;-59
2021/08/30 11:52:40;;;;;;;1.33;0.70;;;;;;;22.38;55.84;97796.66;8412220;28;20202;-59
2021/08/30 11:56:52;;;;;;;1.83;0.70;;;;;;;22.21;52.72;97808.78;8412170;28;20226;-59
2021/08/30 12:01:01;;;;;;;0.70;0.70;;;;;;;21.99;52.30;97805.53;8412561;28;20207;-59
2021/08/30 12:05:06;;;;;;;0.70;0.70;;;;;;;21.86;54.78;97815.56;8418680;28;20318;-67
2021/08/30 12:09:10;;;;;;;1.93;1.17;;;;;;;21.65;55.50;97813.94;8418992;28;20530;-66
2021/08/30 12:17:38;;;;;;;1.10;1.00;;;;;;;22.25;53.90;97807.53;8418837;28;20557;-66
2021/08/30 12:21:42;;;;;;;0.80;0.80;;;;;;;22.02;54.24;97807.88;8418602;28;20237;-67
2021/08/30 12:25:48;;;;;;;1.53;1.10;;;;;;;23.09;51.36;97800.41;8418903;28;20384;-67
2021/08/30 12:29:50;;;;;;;1.17;1.07;;;;;;;23.93;49.84;97799.91;8418353;28;20214;-67
2021/08/30 12:34:09;;;;;;;1.00;0.90;;;;;;;24.56;46.62;97798.72;8418502;28;20382;-68
2021/08/30 12:38:13;;;;;;;1.40;0.90;;;;;;;24.86;46.26;97799.13;8416193;28;20250;-67
2021/08/30 12:42:17;;;;;;;1.70;1.20;;;;;;;23.95;48.36;97797.94;8426687;28;20278;-67
2021/08/30 12:46:20;;;;;;;1.30;1.00;;;;;;;23.39;48.85;97792.06;8418499;28;20200;-67
2021/08/30 12:50:23;;;;;;;1.70;1.10;;;;;;;24.19;47.78;97788.47;8418254;28;20286;-67
2021/08/30 12:54:26;;;;;;;1.13;0.87;;;;;;;23.91;46.45;97793.09;8418466;28;20199;-66
2021/08/30 12:58:30;;;;;;;1.87;1.30;;;;;;;23.26;46.53;97796.91;8417974;28;20227;-66
2021/08/30 13:02:34;;;;;;;1.00;1.00;;;;;;;23.82;46.14;97800.19;8417920;28;20233;-66
2021/08/30 13:06:37;;;;;;;1.30;1.10;;;;;;;24.10;46.06;97797.34;8417396;28;20202;-66
2021/08/30 13:10:40;;;;;;;1.20;1.10;;;;;;;23.79;46.03;97795.19;8416858;28;20309;-66
2021/08/30 13:14:44;;;;;;;2.27;1.27;;;;;;;23.30;45.72;97794.81;8416622;28;20210;-66
2021/08/30 13:18:47;;;;;;;1.40;1.30;;;;;;;24.17;45.26;97796.53;8416793;28;20333;-66
2021/08/30 13:22:50;;;;;;;2.60;1.40;;;;;;;24.32;43.68;97802.06;8416655;28;20225;-66
2021/08/30 13:26:53;;;;;;;1.67;1.30;;;;;;;23.91;45.08;97799.25;8417582;28;20209;-65
2021/08/30 13:30:57;;;;;;;2.10;1.33;;;;;;;23.52;45.43;97796.13;8417186;28;20201;-66
2021/08/30 13:35:00;;;;;;;1.70;1.60;;;;;;;23.01;46.51;97801.13;8416629;28;20212;-66
2021/08/30 13:39:03;;;;;;;2.03;1.50;;;;;;;22.68;46.70;97803.44;8415887;28;20410;-66
2021/08/30 13:43:05;;;;;;;7.40;1.73;;;;;;;22.57;48.48;97806.28;8416038;28;20315;-66
2021/08/30 13:47:10;;;;;;;2.80;1.50;;;;;;;22.33;48.13;97809.44;8416060;28;20490;-66
2021/08/30 13:51:13;;;;;;;2.33;1.70;;;;;;;22.30;49.76;97813.22;8415699;28;20229;-67
2021/08/30 13:55:16;;;;;;;2.73;1.73;;;;;;;22.19;50.42;97808.09;8432917;28;20205;-67
2021/08/30 13:59:18;;;;;;;2.43;1.80;;;;;;;22.28;50.44;97817.00;8449025;28;20237;-67
2021/08/30 14:03:39;;;;;;;1.90;1.80;;;;;;;22.20;51.44;97810.59;8448505;28;20306;-68
2021/08/30 14:07:42;;;;;;;1.60;1.50;;;;;;;22.17;50.54;97810.88;8448769;28;20205;-67
2021/08/30 14:11:45;;;;;;;2.00;1.90;;;;;;;22.30;50.57;97812.41;8448453;28;20199;-67
2021/08/30 14:15:48;;;;;;;2.10;1.90;;;;;;;22.10;51.13;97815.06;8431551;28;20386;-67
2021/08/30 14:19:52;;;;;;;2.27;1.80;;;;;;;22.00;51.66;97809.81;8415162;28;20231;-67
2021/08/30 14:23:55;;;;;;;2.80;2.00;;;;;;;21.78;52.49;97829.47;8413893;28;20206;-61
2021/08/30 14:27:58;;;;;;;2.10;2.00;;;;;;;21.88;52.19;97820.72;8412998;28;20202;-60
2021/08/30 14:32:01;;;;;;;2.53;2.20;;;;;;;21.91;51.89;97820.41;8414081;28;20207;-60
2021/08/30 14:36:05;;;;;;;3.13;2.40;;;;;;;22.47;50.66;97830.09;8414146;28;20358;-60
2021/08/30 14:40:09;;;;;;;2.60;2.40;;;;;;;22.57;51.20;97833.50;8413541;28;20223;-60
2021/08/30 14:44:12;;;;;;;3.40;2.20;;;;;;;22.19;51.92;97829.19;8413506;28;20395;-60
2021/08/30 14:48:16;;;;;;;2.40;2.20;;;;;;;21.99;52.35;97828.41;8413663;28;20520;-60
2021/08/30 14:52:23;;;;;;;2.50;2.30;;;;;;;21.80;51.34;97827.53;8413330;28;20219;-60
2021/08/30 14:56:26;;;;;;;2.43;2.23;;;;;;;21.73;51.76;97833.50;8413012;28;20410;-60
2021/08/30 15:00:29;;;;;;;1.30;1.17;;;;;;;21.40;54.33;97838.19;8412884;28;20294;-59
2021/08/30 15:04:32;;;;;;;0.80;0.70;;;;;;;21.07;55.38;97833.19;8412961;28;20310;-60
2021/08/30 15:08:37;;;;;;;0.80;0.80;;;;;;;21.00;55.76;97831.25;8413070;28;20214;-60
2021/08/30 15:12:41;;;;;;;0.70;0.60;;;;;;;20.75;57.30;97833.44;8412937;28;20226;-60
2021/08/30 15:16:44;;;;;;;3.10;0.83;;;;;;;20.66;58.18;97835.09;8412846;28;20219;-60
2021/08/30 15:20:47;;;;;;;2.40;0.90;;;;;;;20.50;59.32;97835.56;8412824;28;20235;-60
2021/08/30 15:24:51;;;;;;;1.60;0.90;;;;;;;20.74;58.96;97841.47;8413249;28;20214;-60
2021/08/30 15:29:01;;;;;;;1.83;1.00;;;;;;;20.47;59.13;97845.53;8412917;28;20203;-60
2021/08/30 15:33:04;;;;;;;1.43;1.00;;;;;;;20.37;60.03;97847.28;8412984;28;20253;-60
2021/08/30 15:37:07;;;;;;;0.97;0.80;;;;;;;20.16;60.02;97845.53;8411590;28;20199;-60
2021/08/30 15:41:11;;;;;;;4.70;0.90;;;;;;;20.17;58.75;97849.81;8412445;28;20227;-60
2021/08/30 15:45:14;;;;;;;3.37;0.97;;;;;;;20.13;59.51;97845.81;8412492;28;20373;-67
2021/08/30 15:49:17;;;;;;;1.20;1.10;;;;;;;20.23;59.13;97851.94;8412507;28;20219;-67
2021/08/30 15:53:19;;;;;;;2.23;1.10;;;;;;;20.16;58.84;97853.41;8412298;28;20215;-67
2021/08/30 15:57:24;;;;;;;1.20;1.00;;;;;;;20.24;59.33;97850.97;8412333;28;20228;-67
2021/08/30 16:01:27;;;;;;;1.20;0.90;;;;;;;20.16;59.73;97863.91;8412333;28;20310;-66
2021/08/30 16:05:31;;;;;;;2.50;1.10;;;;;;;20.08;59.80;97869.00;8412389;28;20260;-66
2021/08/30 16:09:34;;;;;;;2.87;1.00;;;;;;;20.18;59.82;97871.69;8412242;28;20244;-67
2021/08/30 16:13:38;;;;;;;1.37;1.10;;;;;;;20.25;59.96;97870.19;8411975;28;20412;-66
2021/08/30 16:17:41;;;;;;;1.00;1.00;;;;;;;20.13;61.01;97871.25;8411785;28;20201;-67
2021/08/30 16:21:44;;;;;;;1.63;1.10;;;;;;;20.04;61.34;97878.13;8411821;28;20204;-66
2021/08/30 16:25:46;;;;;;;8.43;1.60;;;;;;;20.25;60.80;97878.91;8411782;28;20199;-66
2021/08/30 16:29:51;;;;;;;2.83;1.30;;;;;;;20.29;60.91;97888.19;8411771;28;20550;-66
2021/08/30 16:33:53;;;;;;;1.53;1.07;;;;;;;20.25;61.09;97888.59;8411077;28;20195;-66
2021/08/30 16:37:56;;;;;;;1.20;1.10;;;;;;;20.31;61.13;97882.81;8410710;28;20204;-66
2021/08/30 16:41:59;;;;;;;4.57;1.40;;;;;;;20.35;61.76;97888.66;8410891;28;20192;-66
2021/08/30 16:46:04;;;;;;;1.27;1.17;;;;;;;20.14;61.86;97892.13;8411769;28;20201;-66
2021/08/30 16:50:08;;;;;;;1.27;1.00;;;;;;;20.19;62.16;97894.41;8415395;28;20248;-66
2021/08/30 16:54:11;;;;;;;2.40;1.30;;;;;;;20.13;62.46;97894.91;8417810;28;20205;-66
2021/08/30 16:58:14;;;;;;;11.17;4.87;;;;;;;20.17;62.91;97898.94;8417541;28;20232;-66
2021/08/30 17:02:18;;;;;;;1.73;1.30;;;;;;;20.10;62.80;97901.25;8417265;28;20224;-65
2021/08/30 17:06:21;;;;;;;2.20;1.20;;;;;;;19.68;65.46;97898.59;8417027;28;20350;-65
2021/08/30 17:10:24;;;;;;;1.80;1.33;;;;;;;19.49;65.33;97907.16;8416595;28;20479;-65
2021/08/30 17:14:28;;;;;;;1.30;1.20;;;;;;;19.37;65.25;97906.38;8416407;28;20195;-65
2021/08/30 17:18:35;;;;;;;5.33;1.30;;;;;;;19.52;64.13;97910.38;8416455;28;20549;-65
2021/08/30 17:22:38;;;;;;;1.70;1.23;;;;;;;19.30;64.92;97921.78;8416562;28;20371;-65
2021/08/30 17:26:43;;;;;;;1.40;1.30;;;;;;;19.22;65.59;97918.13;8416385;28;20201;-66
2021/08/30 17:30:45;;;;;;;11.87;4.23;;;;;;;19.37;65.83;97913.41;8416282;28;20217;-65
2021/08/30 17:34:51;;;;;;;2.43;1.50;;;;;;;19.21;66.41;97912.03;8415984;28;20346;-66
2021/08/30 17:38:53;;;;;;;2.63;1.20;;;;;;;19.26;66.67;97916.91;8416005;28;20229;-65
2021/08/30 17:42:56;;;;;;;2.93;1.30;;;;;;;19.28;66.34;97918.44;8417132;28;20263;-66
2021/08/30 17:46:59;;;;;;;1.63;1.20;;;;;;;19.28;66.60;97915.00;8415667;28;20364;-66
2021/08/30 17:51:03;;;;;;;2.17;1.43;;;;;;;19.37;66.09;97921.28;8415363;28;20230;-66
2021/08/30 17:55:07;;;;;;;2.67;1.20;;;;;;;19.40;66.43;97926.28;8415574;28;20195;-66
2021/08/30 17:59:10;;;;;;;5.60;1.50;;;;;;;19.40;66.19;97936.78;8414713;28;20223;-66
2021/08/30 18:03:14;;;;;;;2.10;1.50;;;;;;;19.31;66.79;97946.25;8415072;28;20239;-66
2021/08/30 18:07:19;;;;;;;1.43;1.27;;;;;;;19.21;66.74;97945.31;8415415;28;20246;-66
2021/08/30 18:11:22;;;;;;;1.87;1.50;;;;;;;19.19;66.84;97955.97;8415572;28;20349;-66
2021/08/30 18:15:26;;;;;;;7.43;1.50;;;;;;;19.12;66.80;97949.53;8415522;28;20226;-66
2021/08/30 18:19:29;;;;;;;2.97;1.40;;;;;;;19.12;67.13;97958.22;8414880;28;20228;-66
2021/08/30 18:23:33;;;;;;;1.83;1.33;;;;;;;19.03;67.23;97969.44;8415127;28;20200;-66
2021/08/30 18:27:36;;;;;;;1.30;1.20;;;;;;;19.17;66.63;97965.72;8413897;28;20215;-66
2021/08/30 18:31:39;;;;;;;2.10;1.40;;;;;;;19.09;66.68;97976.00;8414474;28;20206;-66
2021/08/30 18:35:44;;;;;;;1.30;1.20;;;;;;;19.05;66.70;97978.03;8414567;28;20196;-66
2021/08/30 18:39:48;;;;;;;1.50;1.40;;;;;;;18.85;66.84;97982.22;8414461;28;20227;-66
2021/08/30 18:43:52;;;;;;;4.87;1.37;;;;;;;18.89;67.08;97982.81;8414158;28;20213;-65
2021/08/30 18:47:54;;;;;;;3.40;1.40;;;;;;;18.95;66.50;97988.41;8413398;28;20199;-65
2021/08/30 18:51:57;;;;;;;3.27;1.60;;;;;;;18.90;66.42;97994.97;8413142;28;20209;-59
2021/08/30 18:56:06;;;;;;;1.40;1.30;;;;;;;18.91;66.81;97999.28;8413876;28;20200;-59
2021/08/30 19:00:11;;;;;;;3.63;1.70;;;;;;;18.82;66.66;97998.19;8413542;28;20239;-58
2021/08/30 19:04:14;;;;;;;1.93;1.30;;;;;;;18.91;66.20;97994.88;8413878;28;20242;-58
2021/08/30 19:08:17;;;;;;;1.60;1.30;;;;;;;18.81;66.16;97998.31;8413694;28;20202;-58
2021/08/30 19:12:21;;;;;;;1.80;1.30;;;;;;;18.82;66.65;98007.88;8410915;28;20200;-58
2021/08/30 19:16:24;;;;;;;1.50;1.10;;;;;;;18.78;66.72;98003.78;8412660;28;20207;-66
2021/08/30 19:20:30;;;;;;;1.80;1.20;;;;;;;18.84;66.39;98009.41;8412747;28;20230;-65